Time;durP1;ratioP1;P1;durP2;ratioP2;P2;SDS_P1;SDS_P2;PMS_P1;PMS_P2;Temp;Humidity;BMP_temperature;BMP_pressure;BME280_temperature;BME280_humidity;BME280_pressure;Samples;Min_cycle;Max_cycle;Signal;HPM_P1;HPM_P2
2021/05/17 00:09:18;;;;;;;3.00;1.13;;;16.80;99.90;;;;;;20617349;28;20231;-73
2021/05/17 00:19:22;;;;;;;2.33;1.70;;;16.60;99.90;;;;;;20617065;28;20202;-76
2021/05/17 00:29:27;;;;;;;0.20;0.10;;;16.50;99.90;;;;;;20617390;28;20223;-77
2021/05/17 00:39:30;;;;;;;1.80;0.67;;;16.60;99.90;;;;;;20617020;28;20203;-74
2021/05/17 00:49:34;;;;;;;5.80;0.50;;;16.40;99.90;;;;;;20598845;28;20232;-72
2021/05/17 00:59:38;;;;;;;0.73;0.27;;;16.50;99.90;;;;;;20629847;23;20259;-67
2021/05/17 01:09:42;;;;;;;0.20;0.10;;;16.50;99.90;;;;;;20596814;28;20223;-68
2021/05/17 01:20:00;;;;;;;0.20;0.13;;;16.60;99.90;;;;;;20613437;28;20202;-68
2021/05/17 01:30:07;;;;;;;0.20;0.00;;;16.70;99.90;;;;;;20613499;28;20249;-68
2021/05/17 01:40:11;;;;;;;0.20;0.10;;;16.70;99.90;;;;;;20613437;28;20198;-67
2021/05/17 01:50:17;;;;;;;1.40;0.40;;;16.60;99.90;;;;;;20580439;28;20714;-67
2021/05/17 02:00:21;;;;;;;0.20;0.10;;;16.80;99.90;;;;;;20625606;23;20235;-68
2021/05/17 02:10:25;;;;;;;0.20;0.10;;;16.90;99.90;;;;;;20610137;28;20711;-68
2021/05/17 02:20:31;;;;;;;0.20;0.20;;;16.60;99.90;;;;;;20611117;28;20562;-67
2021/05/17 02:30:37;;;;;;;0.20;0.10;;;16.80;99.90;;;;;;20607231;28;20243;-67
2021/05/17 02:40:41;;;;;;;0.53;0.23;;;16.80;99.90;;;;;;20609859;28;20887;-67
2021/05/17 02:50:46;;;;;;;0.20;0.10;;;16.60;99.90;;;;;;20606698;28;20238;-66
2021/05/17 03:00:53;;;;;;;0.20;0.10;;;16.50;99.90;;;;;;20624138;23;20250;-70
2021/05/17 03:11:00;;;;;;;0.20;0.00;;;16.50;99.90;;;;;;20604908;28;20251;-69
2021/05/17 03:21:03;;;;;;;0.20;0.13;;;16.30;99.90;;;;;;20610502;28;20210;-68
2021/05/17 03:31:07;;;;;;;0.20;0.10;;;16.20;99.90;;;;;;20621741;28;20661;-70
2021/05/17 03:41:10;;;;;;;0.20;0.20;;;15.90;99.90;;;;;;20603336;28;20206;-70
2021/05/17 03:51:15;;;;;;;2.43;0.47;;;15.70;99.90;;;;;;20604899;28;20526;-68
2021/05/17 04:01:18;;;;;;;11.53;1.37;;;15.80;99.90;;;;;;20619960;28;20223;-68
2021/05/17 04:21:42;;;;;;;0.33;0.33;;;15.70;99.90;;;;;;20616102;28;20251;-67
2021/05/17 04:31:47;;;;;;;0.40;0.20;;;15.60;99.90;;;;;;20615875;28;20219;-68
2021/05/17 04:41:50;;;;;;;0.20;0.00;;;15.70;99.90;;;;;;20616065;28;20277;-70
2021/05/17 04:51:54;;;;;;;0.20;0.00;;;15.90;99.90;;;;;;20613263;28;20242;-69
2021/05/17 05:02:01;;;;;;;0.70;0.70;;;15.80;99.90;;;;;;20581192;28;20671;-68
2021/05/17 05:12:05;;;;;;;0.20;0.00;;;15.90;99.90;;;;;;20612090;28;20231;-70
2021/05/17 05:22:08;;;;;;;0.20;0.13;;;16.00;99.90;;;;;;20614027;28;20253;-69
2021/05/17 05:32:25;;;;;;;0.20;0.10;;;16.20;99.90;;;;;;20609428;28;20229;-71
2021/05/17 05:42:28;;;;;;;0.20;0.20;;;16.20;99.90;;;;;;20592392;28;20199;-69
2021/05/17 05:52:32;;;;;;;1.23;0.87;;;16.50;99.90;;;;;;20591346;28;20775;-71
2021/05/17 06:02:36;;;;;;;1.43;0.87;;;16.60;99.90;;;;;;20607479;28;20306;-69
2021/05/17 06:12:41;;;;;;;1.37;0.20;;;16.70;99.90;;;;;;20610913;28;20227;-69
2021/05/17 06:22:45;;;;;;;14.23;0.50;;;16.90;99.90;;;;;;20606722;28;20195;-72
2021/05/17 06:32:50;;;;;;;1.90;0.47;;;17.10;99.90;;;;;;20608770;28;20223;-68
2021/05/17 06:42:53;;;;;;;0.40;0.27;;;16.90;99.90;;;;;;20605329;28;20246;-67
2021/05/17 06:52:57;;;;;;;0.77;0.43;;;17.10;99.90;;;;;;20605992;28;20227;-66
2021/05/17 07:03:02;;;;;;;15.83;0.87;;;17.30;99.90;;;;;;20591598;28;20219;-66
2021/05/17 07:13:08;;;;;;;6.43;0.50;;;17.40;99.90;;;;;;20612209;28;20397;-69
2021/05/17 07:33:35;;;;;;;0.87;0.27;;;17.70;99.90;;;;;;20606538;28;20535;-68
2021/05/17 07:43:40;;;;;;;2.57;1.40;;;17.50;99.90;;;;;;20618490;28;20194;-69
2021/05/17 07:53:45;;;;;;;0.20;0.13;;;17.70;99.90;;;;;;20613912;28;20227;-68
2021/05/17 08:03:48;;;;;;;0.73;0.47;;;17.80;99.90;;;;;;20601367;28;20299;-67
2021/05/17 08:13:52;;;;;;;0.30;0.20;;;18.40;99.90;;;;;;20538538;28;20243;-66
2021/05/17 08:23:57;;;;;;;0.37;0.37;;;18.00;99.90;;;;;;20516617;28;20769;-65
2021/05/17 08:34:02;;;;;;;5.80;1.23;;;17.90;99.90;;;;;;20553054;28;20477;-66
2021/05/17 08:44:06;;;;;;;0.40;0.30;;;17.80;99.90;;;;;;20612090;28;20199;-67
2021/05/17 08:54:11;;;;;;;3.33;1.00;;;18.00;99.90;;;;;;20613680;28;20274;-67
2021/05/17 09:04:16;;;;;;;0.20;0.00;;;18.50;99.90;;;;;;20609965;28;20254;-68
2021/05/17 09:14:22;;;;;;;0.23;0.17;;;18.80;99.90;;;;;;20609285;28;20694;-69
2021/05/17 09:24:46;;;;;;;0.43;0.17;;;18.90;99.90;;;;;;20608694;28;20195;-68
2021/05/17 09:35:01;;;;;;;0.20;0.00;;;19.30;99.90;;;;;;20609684;28;20265;-65
2021/05/17 09:45:12;;;;;;;0.30;0.30;;;19.20;99.90;;;;;;20608280;28;20196;-67
2021/05/17 09:55:16;;;;;;;1.53;0.50;;;19.50;99.90;;;;;;20607544;28;20300;-65
2021/05/17 10:05:24;;;;;;;9.00;0.77;;;20.20;99.90;;;;;;20588797;28;20223;-67
2021/05/17 10:15:31;;;;;;;0.30;0.30;;;20.30;99.90;;;;;;20576390;28;20214;-64
2021/05/17 10:25:45;;;;;;;0.30;0.27;;;20.00;99.90;;;;;;20684526;28;20213;-64
2021/05/17 10:35:51;;;;;;;1.03;0.67;;;20.70;99.90;;;;;;20644064;28;20227;-65
2021/05/17 10:56:56;;;;;;;0.97;0.87;;;20.60;99.90;;;;;;20603327;28;20237;-72
2021/05/17 11:07:23;;;;;;;4.13;0.83;;;20.10;99.90;;;;;;20597331;28;20338;-74
2021/05/17 11:17:27;;;;;;;1.20;0.50;;;20.40;99.90;;;;;;20604024;28;20286;-71
2021/05/17 11:27:45;;;;;;;9.70;0.87;;;20.90;99.90;;;;;;20616953;28;20211;-72
2021/05/17 11:38:09;;;;;;;0.40;0.40;;;21.40;99.90;;;;;;20609236;28;20378;-68
2021/05/17 11:48:12;;;;;;;9.15;1.25;;;21.20;99.90;;;;;;20617269;28;20199;-69
2021/05/17 11:58:24;;;;;;;0.63;0.47;;;23.10;99.90;;;;;;20617416;28;20573;-72
2021/05/17 12:08:27;;;;;;;0.93;0.40;;;23.40;99.90;;;;;;20615008;28;20223;-67
2021/05/17 12:18:37;;;;;;;0.30;0.20;;;23.10;99.90;;;;;;20611392;28;20314;-70
2021/05/17 12:28:40;;;;;;;5.60;0.85;;;23.20;99.90;;;;;;20612115;28;20246;-67
2021/05/17 12:38:48;;;;;;;1.23;0.93;;;24.80;99.90;;;;;;20592136;28;20573;-67
2021/05/17 12:48:56;;;;;;;5.40;0.67;;;24.10;99.90;;;;;;20611546;28;20576;-68
2021/05/17 12:59:07;;;;;;;1.13;0.75;;;23.60;99.90;;;;;;20610385;28;20719;-68
2021/05/17 13:09:20;;;;;;;2.15;0.40;;;25.50;99.90;;;;;;20608904;28;20700;-72
2021/05/17 13:19:41;;;;;;;2.05;0.57;;;25.90;99.90;;;;;;20611618;28;20207;-68
2021/05/17 13:40:18;;;;;;;5.85;0.20;;;25.50;99.90;;;;;;20534256;28;20213;-69
2021/05/17 13:50:21;;;;;;;0.25;0.22;;;25.20;99.90;;;;;;20610401;28;20239;-68
2021/05/17 14:00:27;;;;;;;2.60;1.52;;;25.70;99.90;;;;;;20520326;28;20228;-67
2021/05/17 14:10:31;;;;;;;2.72;0.98;;;25.90;99.90;;;;;;20510654;28;20257;-70
2021/05/17 14:20:37;;;;;;;7.68;1.30;;;26.30;99.90;;;;;;20528135;28;20196;-67
2021/05/17 14:30:41;;;;;;;1.48;0.75;;;27.00;99.90;;;;;;20526704;28;20371;-71
2021/05/17 14:40:45;;;;;;;7.13;0.73;;;27.50;99.90;;;;;;20526834;28;20280;-69
2021/05/17 14:50:49;;;;;;;2.42;1.35;;;27.20;99.90;;;;;;20527029;28;20591;-69
2021/05/17 15:00:54;;;;;;;1.63;0.47;;;26.90;99.90;;;;;;20519534;28;20339;-70
2021/05/17 15:10:58;;;;;;;1.63;1.13;;;27.20;99.90;;;;;;20573441;28;20223;-69
2021/05/17 15:21:02;;;;;;;1.65;0.80;;;27.00;99.90;;;;;;20587516;28;20200;-69
2021/05/17 15:31:06;;;;;;;4.15;1.10;;;27.10;99.90;;;;;;20538279;28;20704;-70
2021/05/17 15:41:11;;;;;;;5.15;0.90;;;26.70;99.90;;;;;;20539271;28;20277;-69
2021/05/17 15:51:15;;;;;;;4.50;0.85;;;26.80;99.90;;;;;;20532664;28;20223;-69
2021/05/17 16:01:20;;;;;;;7.00;0.47;;;26.40;99.90;;;;;;20556610;28;20736;-76
2021/05/17 16:11:28;;;;;;;1.90;0.98;;;25.80;99.90;;;;;;20574771;28;20216;-72
2021/05/17 16:21:33;;;;;;;1.75;0.40;;;25.60;99.90;;;;;;20573598;28;20192;-73
2021/05/17 16:31:36;;;;;;;4.67;0.67;;;24.60;99.90;;;;;;20567511;28;20279;-74
2021/05/17 16:41:41;;;;;;;12.97;0.40;;;23.70;99.90;;;;;;20448210;28;20193;-75
2021/05/17 16:51:46;;;;;;;1.23;1.13;;;23.60;99.90;;;;;;20565681;28;20227;-74
2021/05/17 17:01:51;;;;;;;9.50;1.33;;;22.70;99.90;;;;;;20579677;28;20298;-74
2021/05/17 17:11:56;;;;;;;1.43;1.17;;;23.40;99.90;;;;;;20523890;28;20329;-75
2021/05/17 17:22:00;;;;;;;4.73;0.50;;;23.40;99.90;;;;;;20598643;28;20214;-72
2021/05/17 17:32:05;;;;;;;1.23;0.47;;;23.50;99.90;;;;;;20552600;28;20338;-73
2021/05/17 17:42:10;;;;;;;0.87;0.50;;;23.10;99.90;;;;;;20547054;28;20279;-71
2021/05/17 17:52:25;;;;;;;0.80;0.60;;;21.90;99.90;;;;;;20546940;28;20572;-76
2021/05/17 18:02:29;;;;;;;0.93;0.67;;;21.40;99.90;;;;;;20562290;28;20230;-73
2021/05/17 18:12:37;;;;;;;0.87;0.77;;;20.60;99.90;;;;;;20563058;28;20212;-77
2021/05/17 18:22:41;;;;;;;5.70;1.07;;;20.00;99.90;;;;;;20553787;28;20609;-74
2021/05/17 18:32:53;;;;;;;0.20;0.00;;;19.50;99.90;;;;;;20561712;28;20219;-79
2021/05/17 18:43:04;;;;;;;3.23;0.67;;;18.80;99.90;;;;;;20579362;28;20202;-77
2021/05/17 18:53:07;;;;;;;3.80;0.60;;;18.80;99.90;;;;;;20591574;28;20231;-77
2021/05/17 19:03:12;;;;;;;2.00;0.40;;;18.70;99.90;;;;;;20587374;28;20220;-74
2021/05/17 19:13:15;;;;;;;0.63;0.33;;;18.90;99.90;;;;;;20527052;28;20235;-74
2021/05/17 19:23:19;;;;;;;2.40;0.67;;;18.70;99.90;;;;;;20542640;28;20200;-74
2021/05/17 19:33:22;;;;;;;1.03;0.80;;;18.60;99.90;;;;;;20542582;28;20234;-78
2021/05/17 19:43:26;;;;;;;1.03;0.37;;;18.70;99.90;;;;;;20541811;28;20241;-74
2021/05/17 19:53:29;;;;;;;0.20;0.10;;;18.40;99.90;;;;;;20585494;28;21011;-77
2021/05/17 20:03:35;;;;;;;1.53;0.77;;;18.20;99.90;;;;;;20620048;28;20289;-77
2021/05/17 20:13:38;;;;;;;1.10;0.50;;;18.30;99.90;;;;;;20618805;28;21049;-77
2021/05/17 20:23:43;;;;;;;0.20;0.10;;;18.30;99.90;;;;;;20616857;28;20199;-75
2021/05/17 20:34:01;;;;;;;0.27;0.27;;;18.30;99.90;;;;;;20599968;28;20226;-79
2021/05/17 20:44:14;;;;;;;3.57;1.03;;;18.10;99.90;;;;;;20599107;28;20199;-77
2021/05/17 20:54:17;;;;;;;6.60;0.93;;;17.80;99.90;;;;;;20617794;28;21136;-76
2021/05/17 21:04:21;;;;;;;0.30;0.30;;;17.90;99.90;;;;;;20613957;28;20722;-76
2021/05/17 21:14:24;;;;;;;0.47;0.37;;;18.00;99.90;;;;;;20616320;28;20231;-78
2021/05/17 21:24:28;;;;;;;11.87;0.60;;;17.60;99.90;;;;;;20614641;28;20195;-75
2021/05/17 21:34:31;;;;;;;0.20;0.17;;;17.90;99.90;;;;;;20541479;28;20238;-78
2021/05/17 21:44:35;;;;;;;0.20;0.20;;;17.90;99.90;;;;;;20515570;28;20200;-75
2021/05/17 21:54:38;;;;;;;0.77;0.30;;;17.90;99.90;;;;;;20513571;28;20235;-76
2021/05/17 22:04:42;;;;;;;1.70;0.50;;;17.80;99.90;;;;;;20494030;28;20255;-76
2021/05/17 22:14:45;;;;;;;0.47;0.47;;;17.60;99.90;;;;;;20512678;28;20599;-76
2021/05/17 22:24:49;;;;;;;0.93;0.23;;;17.40;99.90;;;;;;20500152;28;20192;-73
2021/05/17 22:34:52;;;;;;;0.20;0.00;;;17.60;99.90;;;;;;20552739;28;20223;-75
2021/05/17 22:44:56;;;;;;;0.30;0.30;;;17.60;99.90;;;;;;20546885;28;20203;-78
2021/05/17 22:54:59;;;;;;;0.20;0.13;;;17.70;99.90;;;;;;20567592;28;20490;-76
2021/05/17 23:05:04;;;;;;;1.80;1.50;;;17.70;99.90;;;;;;20528025;28;20646;-74
2021/05/17 23:15:09;;;;;;;0.20;0.20;;;17.50;99.90;;;;;;20530580;28;20775;-77
2021/05/17 23:35:34;;;;;;;0.83;0.83;;;17.50;99.90;;;;;;20508710;28;20580;-76
2021/05/17 23:45:38;;;;;;;2.27;1.13;;;17.20;99.90;;;;;;20536107;28;20956;-76
2021/05/17 23:55:43;;;;;;;0.37;0.30;;;17.30;99.90;;;;;;20538654;28;20258;-77
